Time;durP1;ratioP1;P1;durP2;ratioP2;P2;SDS_P1;SDS_P2;PMS_P1;PMS_P2;Temp;Humidity;BMP_temperature;BMP_pressure;BME280_temperature;BME280_humidity;BME280_pressure;Samples;Min_cycle;Max_cycle;Signal;HPM_P1;HPM_P2
2022/08/08 00:00:17;;;;;;;;;2.00;2.00;;;;;20.76;40.38;101775.81;5037888;28;45521;-63
2022/08/08 00:03:12;;;;;;;;;2.67;2.00;;;;;20.69;40.70;101783.00;5035786;28;45829;-64
2022/08/08 00:06:00;;;;;;;;;3.67;3.67;;;;;20.69;40.68;101786.56;5036684;28;45941;-63
2022/08/08 00:08:49;;;;;;;;;4.00;4.00;;;;;20.60;41.23;101779.53;5024211;28;45215;-63
2022/08/08 00:11:23;;;;;;;;;4.67;3.33;;;;;20.65;41.09;101779.84;5035797;28;45553;-63
2022/08/08 00:14:12;;;;;;;;;3.33;2.00;;;;;20.68;41.57;101786.72;5031888;28;46760;-63
2022/08/08 00:16:40;;;;;;;;;4.33;3.33;;;;;20.60;41.49;101787.63;5035962;28;45343;-65
2022/08/08 00:19:25;;;;;;;;;3.67;3.67;;;;;20.42;41.68;101757.44;5037442;28;45444;-64
2022/08/08 00:21:58;;;;;;;;;3.67;3.67;;;;;20.45;41.91;101771.44;5029954;28;45611;-63
2022/08/08 00:24:31;;;;;;;;;2.33;2.00;;;;;20.42;42.33;101773.63;5035644;28;45660;-63
2022/08/08 00:27:02;;;;;;;;;4.00;3.33;;;;;20.00;42.04;101699.41;5020164;28;46881;-63
2022/08/08 00:29:37;;;;;;;;;5.33;5.33;;;;;20.44;42.15;101777.03;5037356;28;45489;-63
2022/08/08 00:32:10;;;;;;;;;4.00;4.00;;;;;20.29;42.44;101755.34;5035582;28;45273;-62
2022/08/08 00:35:17;;;;;;;;;3.00;3.00;;;;;20.30;42.71;101768.66;5024044;28;45861;-62
2022/08/08 00:38:12;;;;;;;;;4.00;4.00;;;;;20.15;42.77;101740.78;5026672;28;45697;-62
2022/08/08 00:40:37;;;;;;;;;3.00;2.00;;;;;20.29;43.05;101764.28;5036998;28;45481;-64
2022/08/08 00:43:31;;;;;;;;;3.00;3.00;;;;;20.25;43.39;101768.38;5037263;28;45636;-63
2022/08/08 00:46:05;;;;;;;;;3.00;3.00;;;;;20.20;43.40;101764.53;5032517;28;46606;-63
2022/08/08 00:48:54;;;;;;;;;4.33;4.33;;;;;20.12;43.57;101757.34;5037654;28;45466;-63
2022/08/08 00:51:46;;;;;;;;;6.00;4.00;;;;;20.15;43.57;101764.22;5036885;28;45586;-63
2022/08/08 00:54:42;;;;;;;;;3.67;3.67;;;;;20.20;43.45;101754.56;5019973;28;45262;-64
2022/08/08 00:57:44;;;;;;;;;4.00;4.00;;;;;20.17;43.68;101760.31;5035550;28;46579;-63
2022/08/08 01:00:13;;;;;;;;;3.67;3.67;;;;;20.05;44.00;101759.09;5036435;28;45557;-64
2022/08/08 01:02:44;;;;;;;;;7.00;4.67;;;;;20.07;43.95;101765.16;5035793;28;45547;-63
2022/08/08 01:05:49;;;;;;;;;2.33;2.33;;;;;20.02;44.39;101760.31;5030431;28;45351;-69
2022/08/08 01:08:49;;;;;;;;;3.67;3.67;;;;;19.89;44.44;101751.97;5036363;28;46704;-63
2022/08/08 01:11:51;;;;;;;;;4.00;4.00;;;;;19.98;44.43;101760.81;5034866;28;46753;-64
2022/08/08 01:15:01;;;;;;;;;3.33;3.00;;;;;19.96;44.52;101752.06;5034229;28;45480;-64
2022/08/08 01:17:56;;;;;;;;;4.00;3.67;;;;;19.95;44.45;101750.41;4935137;28;45574;-63
2022/08/08 01:20:40;;;;;;;;;4.67;4.67;;;;;19.88;45.00;101753.00;5034013;28;46721;-63
2022/08/08 01:23:19;;;;;;;;;5.67;4.33;;;;;19.87;44.85;101750.47;5036027;28;45556;-63
2022/08/08 01:25:59;;;;;;;;;4.00;3.33;;;;;19.78;44.89;101744.28;5031645;28;45523;-63
2022/08/08 01:28:43;;;;;;;;;3.33;3.33;;;;;19.77;45.12;101749.84;5036914;28;45217;-63
2022/08/08 01:31:45;;;;;;;;;3.33;3.33;;;;;19.77;45.24;101747.16;5035357;28;46583;-63
2022/08/08 01:34:32;;;;;;;;;4.67;3.67;;;;;19.68;45.66;101749.94;5034203;28;45645;-62
2022/08/08 01:37:31;;;;;;;;;3.33;3.33;;;;;19.73;45.54;101746.69;5018947;28;45305;-63
2022/08/08 01:40:14;;;;;;;;;4.33;4.33;;;;;19.70;45.80;101747.88;5034024;28;45432;-64
2022/08/08 01:42:46;;;;;;;;;9.33;5.00;;;;;19.24;45.97;101697.59;5033758;28;47729;-61
2022/08/08 01:45:23;;;;;;;;;4.00;4.00;;;;;19.64;45.76;101748.63;5034177;28;45482;-63
2022/08/08 01:48:03;;;;;;;;;5.00;5.00;;;;;19.60;45.90;101741.88;5036817;28;45242;-64
2022/08/08 01:51:05;;;;;;;;;4.33;4.33;;;;;19.61;45.92;101754.34;5035204;28;45438;-62
2022/08/08 01:54:10;;;;;;;;;3.33;3.33;;;;;19.62;46.21;101745.25;5035146;28;46466;-62
2022/08/08 01:56:53;;;;;;;;;5.67;5.67;;;;;19.63;45.94;101749.63;5003734;28;45625;-62
2022/08/08 01:59:24;;;;;;;;;8.67;7.00;;;;;19.56;46.16;101748.66;5037107;28;45281;-63
2022/08/08 02:02:09;;;;;;;;;4.33;4.00;;;;;19.39;46.65;101747.03;5035185;28;45420;-62
2022/08/08 02:05:01;;;;;;;;;5.00;5.00;;;;;19.39;46.59;101752.41;5033299;28;45843;-64
2022/08/08 02:07:56;;;;;;;;;3.00;3.00;;;;;19.32;46.93;101748.75;5035052;28;45345;-61
2022/08/08 02:10:34;;;;;;;;;5.67;5.00;;;;;19.34;47.10;101750.25;5035829;28;45604;-63
2022/08/08 02:13:05;;;;;;;;;4.33;4.33;;;;;19.31;46.77;101752.47;5035599;28;45276;-64
2022/08/08 02:15:39;;;;;;;;;5.00;5.00;;;;;19.35;46.81;101759.19;5033258;28;46526;-64
2022/08/08 02:18:37;;;;;;;;;4.00;3.67;;;;;19.31;47.13;101747.09;5018056;28;45719;-62
2022/08/08 02:24:11;;;;;;;;;4.00;4.00;;;;;19.26;47.59;101750.31;5036974;28;45352;-63
2022/08/08 02:26:57;;;;;;;;;5.00;5.00;;;;;19.21;47.41;101749.16;5031729;28;47308;-62
2022/08/08 02:29:33;;;;;;;;;8.00;5.67;;;;;19.24;47.43;101740.72;5034308;28;45399;-62
2022/08/08 02:32:23;;;;;;;;;7.67;7.00;;;;;19.31;47.33;101744.38;5033935;28;45375;-62
2022/08/08 02:35:00;;;;;;;;;10.00;5.33;;;;;19.20;47.56;101752.88;5036045;28;45739;-63
2022/08/08 02:37:53;;;;;;;;;5.00;5.00;;;;;19.09;47.97;101746.03;5035184;28;45460;-63
2022/08/08 02:40:34;;;;;;;;;8.33;7.67;;;;;18.55;47.50;101638.94;5020949;28;45350;-63
2022/08/08 02:43:34;;;;;;;;;6.67;6.67;;;;;19.08;48.01;101742.47;5036179;28;45302;-62
2022/08/08 02:46:11;;;;;;;;;6.00;6.00;;;;;18.95;48.60;101747.59;5034347;28;45532;-64
2022/08/08 02:48:48;;;;;;;;;6.00;6.00;;;;;19.00;48.32;101752.44;5029368;28;46630;-63
2022/08/08 02:51:34;;;;;;;;;9.00;7.67;;;;;18.99;48.47;101748.91;5034656;28;45529;-62
2022/08/08 02:54:21;;;;;;;;;8.33;8.33;;;;;18.62;48.81;101708.25;5033903;28;46290;-63
2022/08/08 02:57:11;;;;;;;;;9.00;8.33;;;;;18.92;48.54;101752.50;5034880;28;45512;-62
2022/08/08 03:00:01;;;;;;;;;6.67;6.67;;;;;18.79;49.10;101753.88;5034367;28;46705;-63
2022/08/08 03:02:59;;;;;;;;;6.00;5.00;;;;;18.79;49.04;101756.56;5032112;28;46985;-63
2022/08/08 03:05:43;;;;;;;;;5.33;5.33;;;;;18.87;49.09;101758.41;5034185;28;45314;-64
2022/08/08 03:08:14;;;;;;;;;5.33;5.33;;;;;18.87;48.95;101753.00;5036347;28;45495;-64
2022/08/08 03:11:07;;;;;;;;;3.33;3.33;;;;;18.77;49.17;101749.66;5032267;28;47408;-66
2022/08/08 03:13:32;;;;;;;;;7.00;6.00;;;;;18.81;49.03;101745.59;5035289;28;45218;-63
2022/08/08 03:16:35;;;;;;;;;9.00;7.33;;;;;18.72;49.42;101750.19;5036282;28;45366;-62
2022/08/08 03:19:18;;;;;;;;;4.67;4.67;;;;;18.73;49.08;101754.56;5037960;28;45485;-64
2022/08/08 03:21:43;;;;;;;;;6.00;6.00;;;;;18.78;49.08;101756.72;5036952;28;45712;-64
2022/08/08 03:24:08;;;;;;;;;5.00;5.00;;;;;18.72;49.49;101757.44;5037165;28;64394;-64
2022/08/08 03:26:41;;;;;;;;;9.00;8.33;;;;;18.55;49.44;101743.97;5036169;28;45675;-62
2022/08/08 03:29:11;;;;;;;;;7.33;6.00;;;;;18.55;49.41;101751.22;5038672;28;45317;-64
2022/08/08 03:34:20;;;;;;;;;10.33;7.00;;;;;18.43;49.94;101763.38;5038408;28;45764;-63
2022/08/08 03:36:45;;;;;;;;;4.67;4.67;;;;;18.44;50.21;101765.88;5037838;28;45431;-62
2022/08/08 03:39:14;;;;;;;;;6.67;6.33;;;;;17.74;50.09;101649.88;5037004;28;45411;-62
2022/08/08 03:41:40;;;;;;;;;5.67;5.67;;;;;18.45;49.94;101770.25;5013539;28;48722;-63
2022/08/08 03:44:06;;;;;;;;;9.67;7.00;;;;;18.46;49.64;101769.25;5018824;28;45348;-63
2022/08/08 03:46:46;;;;;;;;;6.67;6.67;;;;;18.41;49.88;101744.66;5033855;28;45392;-62
2022/08/08 03:49:24;;;;;;;;;9.33;7.33;;;;;18.05;50.14;101700.31;5030819;28;45361;-65
2022/08/08 03:51:54;;;;;;;;;9.67;7.33;;;;;18.06;50.21;101702.00;5034151;28;46930;-63
2022/08/08 03:54:23;;;;;;;;;9.33;8.67;;;;;18.31;50.56;101749.41;5033323;28;45545;-62
2022/08/08 03:56:49;;;;;;;;;8.33;7.67;;;;;18.47;49.66;101778.16;5037495;28;45248;-62
2022/08/08 03:59:15;;;;;;;;;8.67;7.33;;;;;18.36;50.49;101768.56;5038810;28;45630;-63
2022/08/08 04:01:41;;;;;;;;;7.00;7.00;;;;;18.23;50.59;101752.13;5035011;28;47805;-63
2022/08/08 04:04:07;;;;;;;;;5.00;3.00;;;;;18.45;50.52;101778.34;5037928;28;45431;-63
2022/08/08 04:06:33;;;;;;;;;6.67;6.67;;;;;18.44;50.31;101773.13;5035832;28;45359;-63
2022/08/08 04:09:00;;;;;;;;;9.33;9.33;;;;;18.45;50.16;101783.72;5036871;28;45610;-64
2022/08/08 04:11:26;;;;;;;;;9.00;8.00;;;;;18.47;50.59;101775.47;5033720;28;45898;-63
2022/08/08 04:13:52;;;;;;;;;8.67;8.67;;;;;18.47;50.49;101779.00;5032040;28;45364;-63
2022/08/08 04:16:18;;;;;;;;;9.67;8.33;;;;;18.43;50.38;101785.75;5034978;28;45598;-62
2022/08/08 04:18:43;;;;;;;;;10.33;8.33;;;;;17.98;50.62;101710.91;5037998;28;45444;-64
2022/08/08 04:21:09;;;;;;;;;12.00;12.00;;;;;18.41;50.41;101784.22;5035878;28;47562;-62
2022/08/08 04:23:34;;;;;;;;;9.00;8.00;;;;;17.96;50.87;101721.00;5036053;28;46207;-65
2022/08/08 04:26:00;;;;;;;;;5.00;5.00;;;;;18.17;51.28;101774.31;5035333;28;60066;-63
2022/08/08 04:28:25;;;;;;;;;10.33;7.00;;;;;18.29;51.14;101794.50;5037199;28;45314;-64
2022/08/08 04:30:50;;;;;;;;;10.00;8.67;;;;;18.17;50.96;101771.59;5033758;28;45585;-63
2022/08/08 04:33:16;;;;;;;;;8.00;8.00;;;;;18.39;50.80;101788.94;5037141;28;45633;-64
2022/08/08 04:35:42;;;;;;;;;4.33;4.33;;;;;18.35;51.24;101796.50;5035954;28;45642;-63
2022/08/08 04:38:07;;;;;;;;;8.33;8.33;;;;;18.33;50.95;101790.44;5031701;28;45607;-63
2022/08/08 04:40:33;;;;;;;;;7.67;7.67;;;;;18.37;50.67;101791.78;5034081;28;46679;-63
2022/08/08 04:42:58;;;;;;;;;8.33;8.33;;;;;18.45;50.51;101794.50;5025304;28;45372;-62
2022/08/08 04:45:25;;;;;;;;;7.33;7.33;;;;;18.48;50.34;101788.75;5034880;28;45642;-64
2022/08/08 04:47:50;;;;;;;;;11.33;10.00;;;;;18.37;50.79;101789.09;5036735;28;45585;-63
2022/08/08 04:50:16;;;;;;;;;6.33;6.00;;;;;18.41;50.55;101798.50;5035204;28;46407;-63
2022/08/08 04:52:41;;;;;;;;;10.00;7.33;;;;;18.43;50.69;101801.91;5036765;28;45427;-63
2022/08/08 04:55:07;;;;;;;;;9.33;7.00;;;;;18.41;50.43;101801.19;5033722;28;45408;-69
2022/08/08 04:57:32;;;;;;;;;8.67;8.33;;;;;18.42;50.70;101794.84;5037557;28;45523;-63
2022/08/08 04:59:58;;;;;;;;;8.33;8.33;;;;;18.27;50.79;101780.38;5034606;28;46738;-63
2022/08/08 05:02:23;;;;;;;;;8.00;8.00;;;;;18.38;51.36;101809.63;5034891;28;45202;-64
2022/08/08 05:04:48;;;;;;;;;6.33;5.33;;;;;17.90;50.86;101725.19;5036316;28;45526;-63
2022/08/08 05:07:14;;;;;;;;;10.33;9.00;;;;;18.36;50.70;101789.25;5036861;28;45430;-63
2022/08/08 05:09:39;;;;;;;;;11.67;10.00;;;;;18.42;51.05;101805.59;5026757;28;46672;-65
2022/08/08 05:12:05;;;;;;;;;9.00;8.67;;;;;18.39;50.86;101811.31;5032713;28;45431;-62
2022/08/08 05:14:30;;;;;;;;;8.33;8.33;;;;;17.81;50.88;101720.81;5035338;28;45600;-61
2022/08/08 05:20:25;;;;;;;;;11.33;8.67;;;;;18.38;51.10;101809.63;5037480;28;45730;-62
2022/08/08 05:22:50;;;;;;;;;8.00;8.00;;;;;18.33;51.04;101805.75;5014399;28;45498;-63
2022/08/08 05:25:17;;;;;;;;;8.67;6.67;;;;;18.32;51.03;101801.41;5013089;28;45324;-65
2022/08/08 05:27:42;;;;;;;;;9.33;9.33;;;;;18.36;50.80;101822.41;5036872;28;45351;-63
2022/08/08 05:30:11;;;;;;;;;11.00;11.00;;;;;18.31;50.99;101824.78;5034058;28;45994;-63
2022/08/08 05:32:38;;;;;;;;;12.67;10.67;;;;;17.91;51.45;101759.16;5037092;28;45242;-63
2022/08/08 05:35:04;;;;;;;;;10.00;10.00;;;;;17.69;51.14;101722.16;5037098;28;45400;-65
2022/08/08 05:37:31;;;;;;;;;9.33;9.33;;;;;18.30;51.27;101823.09;5035437;28;45325;-63
2022/08/08 05:40:03;;;;;;;;;10.00;8.33;;;;;18.28;51.28;101813.50;5034273;28;46635;-63
2022/08/08 05:42:41;;;;;;;;;12.67;11.33;;;;;18.36;51.08;101825.09;5036658;28;45426;-65
2022/08/08 05:45:07;;;;;;;;;10.00;9.00;;;;;18.37;50.99;101829.47;5019181;28;45389;-62
2022/08/08 05:47:36;;;;;;;;;11.00;10.00;;;;;18.29;51.12;101816.03;5035718;28;45466;-64
2022/08/08 05:50:05;;;;;;;;;10.33;10.33;;;;;18.37;51.50;101834.88;5036624;28;45825;-63
2022/08/08 05:52:34;;;;;;;;;12.00;12.00;;;;;18.42;51.11;101827.16;5036603;28;45544;-63
2022/08/08 05:54:59;;;;;;;;;9.33;8.00;;;;;18.39;51.38;101832.84;5035206;28;45300;-64
2022/08/08 05:57:26;;;;;;;;;8.67;7.00;;;;;18.47;51.07;101837.41;5034658;28;45270;-64
2022/08/08 05:59:56;;;;;;;;;11.00;9.00;;;;;18.47;51.14;101842.78;5034752;28;46584;-65
2022/08/08 06:05:10;;;;;;;;;11.67;10.00;;;;;18.47;51.43;101848.19;5035522;28;45410;-62
2022/08/08 06:07:39;;;;;;;;;7.67;7.67;;;;;18.19;50.64;101786.56;5010227;28;45409;-64
2022/08/08 06:10:07;;;;;;;;;9.00;9.00;;;;;18.57;50.79;101840.75;5036421;28;46745;-64
2022/08/08 06:12:35;;;;;;;;;8.33;8.33;;;;;18.62;50.52;101841.09;5033467;28;45316;-65
2022/08/08 06:15:03;;;;;;;;;12.33;10.33;;;;;18.42;50.56;101784.06;5032446;28;45453;-64
2022/08/08 06:17:32;;;;;;;;;15.00;9.67;;;;;18.42;50.04;101762.53;5034138;28;46853;-62
2022/08/08 06:20:01;;;;;;;;;11.33;10.00;;;;;18.93;50.19;101853.88;5033420;28;46246;-64
2022/08/08 06:22:26;;;;;;;;;11.67;11.67;;;;;19.17;49.75;101851.09;5033624;28;45650;-63
2022/08/08 06:24:52;;;;;;;;;10.33;10.00;;;;;19.39;48.09;101771.31;5016854;28;45377;-66
2022/08/08 06:27:26;;;;;;;;;12.33;11.00;;;;;20.58;46.22;101838.31;5029875;28;45526;-64
2022/08/08 06:29:58;;;;;;;;;10.67;10.67;;;;;21.32;44.04;101833.84;5036133;28;46134;-62
2022/08/08 06:32:28;;;;;;;;;13.33;11.00;;;;;21.85;42.82;101848.88;5033764;28;45413;-71
2022/08/08 06:34:56;;;;;;;;;10.67;8.33;;;;;21.98;41.37;101776.91;5026007;28;45616;-64
2022/08/08 06:37:25;;;;;;;;;9.00;7.67;;;;;23.24;39.81;101863.63;5033440;28;45397;-69
2022/08/08 06:39:55;;;;;;;;;12.00;11.00;;;;;23.63;38.88;101854.88;5034194;28;46555;-63
2022/08/08 06:42:23;;;;;;;;;9.00;9.00;;;;;23.63;37.97;101826.91;5035228;28;46975;-64
2022/08/08 06:44:50;;;;;;;;;9.67;9.67;;;;;23.81;37.18;101797.25;5033239;28;45663;-65
2022/08/08 06:47:16;;;;;;;;;8.33;8.33;;;;;24.76;36.89;101855.06;5032179;28;45712;-63
2022/08/08 06:49:42;;;;;;;;;3.33;3.00;;;;;24.78;35.09;101766.75;5028829;28;45949;-64
2022/08/08 06:52:09;;;;;;;;;8.67;8.67;;;;;25.86;33.78;101845.97;5035083;28;45594;-64
2022/08/08 06:54:36;;;;;;;;;10.00;9.00;;;;;25.88;33.90;101840.28;5039172;28;45283;-64
2022/08/08 06:57:02;;;;;;;;;8.67;8.67;;;;;26.24;33.91;101859.56;5039502;28;45461;-64
2022/08/08 06:59:27;;;;;;;;;7.00;7.00;;;;;26.59;33.24;101867.28;5039475;28;47441;-64
2022/08/08 07:02:04;;;;;;;;;13.33;10.67;;;;;27.06;32.21;101856.78;5034276;28;45531;-64
2022/08/08 07:04:42;;;;;;;;;7.67;7.67;;;;;27.57;31.72;101876.34;5034841;28;45483;-63
2022/08/08 07:07:09;;;;;;;;;10.33;9.00;;;;;28.08;29.86;101861.41;5035802;28;45535;-64
2022/08/08 07:09:44;;;;;;;;;11.67;9.67;;;;;27.78;30.22;101781.31;5039317;28;46831;-64
2022/08/08 07:12:13;;;;;;;;;12.33;10.00;;;;;28.67;28.96;101859.63;5049391;28;45411;-67
2022/08/08 07:14:51;;;;;;;;;9.33;8.00;;;;;29.21;28.45;101875.91;5037537;28;45538;-63
2022/08/08 07:17:23;;;;;;;;;8.67;8.33;;;;;29.49;27.92;101862.31;5037160;28;45588;-63
2022/08/08 07:19:58;;;;;;;;;6.67;6.67;;;;;30.09;27.82;101872.00;5032430;28;48545;-64
2022/08/08 07:22:36;;;;;;;;;9.67;8.00;;;;;29.90;26.99;101871.34;5037889;28;45300;-63
2022/08/08 07:25:04;;;;;;;;;8.00;6.33;;;;;30.39;26.81;101878.00;5036057;28;45579;-64
2022/08/08 07:27:36;;;;;;;;;9.33;9.00;;;;;30.45;25.92;101816.66;5037907;28;45373;-65
2022/08/08 07:30:05;;;;;;;;;7.33;7.33;;;;;31.28;24.92;101836.00;5020277;28;47787;-71
2022/08/08 07:32:31;;;;;;;;;8.33;7.67;;;;;32.10;24.23;101871.59;5037468;28;45348;-65
2022/08/08 07:34:58;;;;;;;;;9.00;9.00;;;;;32.15;24.41;101863.38;5035644;28;45523;-65
2022/08/08 07:37:25;;;;;;;;;6.67;6.67;;;;;32.54;23.58;101869.53;5039325;28;45205;-63
2022/08/08 07:39:51;;;;;;;;;9.67;8.00;;;;;32.94;22.75;101871.75;5035917;28;46126;-64
2022/08/08 07:42:19;;;;;;;;;6.67;6.67;;;;;33.04;22.70;101881.16;5036150;28;45636;-64
2022/08/08 07:44:46;;;;;;;;;8.00;6.67;;;;;32.54;22.99;101850.25;5035450;28;45489;-65
2022/08/08 07:47:11;;;;;;;;;8.00;8.00;;;;;33.11;23.17;101898.31;5022615;28;45443;-65
2022/08/08 07:49:38;;;;;;;;;10.00;9.33;;;;;33.57;22.53;101880.91;5035733;28;46010;-67
2022/08/08 07:52:16;;;;;;;;;12.00;8.00;;;;;33.60;21.72;101881.47;5034197;28;45459;-64
2022/08/08 07:54:50;;;;;;;;;9.33;8.33;;;;;33.09;22.92;101886.72;5017338;28;45313;-63
2022/08/08 07:57:15;;;;;;;;;8.33;8.00;;;;;33.02;22.90;101888.88;5038854;28;45550;-64
2022/08/08 08:00:04;;;;;;;;;6.33;6.33;;;;;33.05;22.48;101882.84;5018885;28;47192;-64
2022/08/08 08:02:45;;;;;;;;;4.67;4.67;;;;;32.77;22.92;101893.09;5031994;28;46274;-66
2022/08/08 08:05:22;;;;;;;;;7.67;6.33;;;;;32.88;22.83;101889.34;5026148;28;45409;-65
2022/08/08 08:07:53;;;;;;;;;7.00;7.00;;;;;31.99;22.99;101806.56;5033743;28;45372;-66
2022/08/08 08:10:19;;;;;;;;;8.67;7.33;;;;;32.26;23.27;101843.16;5025543;28;46456;-65
2022/08/08 08:12:55;;;;;;;;;7.00;7.00;;;;;32.77;23.34;101867.47;5032438;28;45458;-66
2022/08/08 08:15:28;;;;;;;;;9.67;9.00;;;;;32.91;22.46;101868.72;5034528;28;45493;-66
2022/08/08 08:17:59;;;;;;;;;11.00;9.00;;;;;32.68;22.72;101870.75;5027089;28;45541;-64
2022/08/08 08:20:29;;;;;;;;;7.00;7.00;;;;;32.79;22.39;101863.34;5030375;28;45960;-65
2022/08/08 08:22:54;;;;;;;;;5.67;5.67;;;;;32.47;22.63;101857.91;5022550;28;45352;-65
2022/08/08 08:25:19;;;;;;;;;5.33;5.33;;;;;32.87;22.51;101881.38;5027312;28;46434;-65
2022/08/08 08:27:45;;;;;;;;;6.00;6.00;;;;;33.16;22.65;101879.03;5037066;28;45510;-66
2022/08/08 08:30:11;;;;;;;;;7.00;7.00;;;;;33.31;22.25;101865.34;5032733;28;45957;-66
2022/08/08 08:32:36;;;;;;;;;5.67;5.67;;;;;32.56;22.92;101863.75;5028902;28;45477;-66
2022/08/08 08:35:03;;;;;;;;;6.33;6.00;;;;;32.61;22.59;101888.56;5018564;28;45266;-65
2022/08/08 08:37:29;;;;;;;;;6.00;6.00;;;;;32.37;22.82;101828.38;5010381;28;45560;-65
2022/08/08 08:39:54;;;;;;;;;5.00;5.00;;;;;33.12;22.74;101883.44;5016382;28;47284;-65
2022/08/08 08:42:22;;;;;;;;;6.33;6.00;;;;;32.88;22.35;101812.22;5017928;28;45872;-65
2022/08/08 08:44:48;;;;;;;;;8.33;6.00;;;;;33.66;21.24;101883.97;5016065;28;45385;-66
2022/08/08 08:47:16;;;;;;;;;5.67;5.67;;;;;34.00;21.05;101887.09;5037227;28;45406;-65
2022/08/08 08:49:42;;;;;;;;;7.00;6.00;;;;;34.09;20.13;101863.41;5037610;28;45552;-65
2022/08/08 08:52:09;;;;;;;;;5.33;4.00;;;;;34.33;20.17;101887.69;5037427;28;45526;-64
2022/08/08 08:54:35;;;;;;;;;5.00;4.00;;;;;33.47;21.42;101891.09;5037636;28;45363;-67
2022/08/08 08:57:01;;;;;;;;;5.67;5.67;;;;;33.52;21.06;101869.03;5035069;28;45608;-65
2022/08/08 08:59:30;;;;;;;;;9.33;6.67;;;;;33.25;21.82;101888.47;5036633;28;45625;-66
2022/08/08 09:01:58;;;;;;;;;7.00;7.00;;;;;33.32;21.31;101867.03;5036529;28;45331;-66
2022/08/08 09:04:26;;;;;;;;;6.00;4.67;;;;;33.26;21.41;101879.09;5036208;28;45513;-66
2022/08/08 09:06:52;;;;;;;;;4.67;4.00;;;;;33.37;21.53;101864.28;5037859;28;45487;-65
2022/08/08 09:09:24;;;;;;;;;4.33;4.33;;;;;33.78;20.94;101890.06;5037263;28;46417;-65
2022/08/08 09:11:52;;;;;;;;;6.00;6.00;;;;;34.04;20.50;101891.00;5037325;28;45950;-65
2022/08/08 09:14:22;;;;;;;;;4.67;4.67;;;;;33.81;20.06;101880.41;5037297;28;45315;-66
2022/08/08 09:16:49;;;;;;;;;4.00;4.00;;;;;34.29;19.91;101879.16;5037596;28;45411;-64
2022/08/08 09:19:16;;;;;;;;;5.33;5.33;;;;;34.85;19.22;101834.97;5037237;28;45417;-66
2022/08/08 09:21:42;;;;;;;;;4.67;4.67;;;;;35.54;18.51;101875.63;5034832;28;45452;-66
2022/08/08 09:24:08;;;;;;;;;5.33;5.33;;;;;36.15;17.93;101816.28;5037024;28;45493;-67
2022/08/08 09:26:39;;;;;;;;;5.67;5.67;;;;;36.87;17.36;101880.22;5033354;28;45431;-65
2022/08/08 09:29:06;;;;;;;;;5.00;4.00;;;;;37.53;16.49;101880.28;5029092;28;46808;-64
2022/08/08 09:31:50;;;;;;;;;5.00;5.00;;;;;38.41;16.39;101880.63;5034663;28;46383;-66
2022/08/08 09:34:18;;;;;;;;;4.67;4.67;;;;;39.21;14.25;101766.22;5033906;28;45352;-64
2022/08/08 09:36:46;;;;;;;;;4.00;4.00;;;;;40.62;13.89;101854.97;5030841;28;45587;-66
2022/08/08 09:39:16;;;;;;;;;4.00;4.00;;;;;40.91;13.51;101868.44;5030929;28;46982;-74
2022/08/08 09:41:42;;;;;;;;;6.33;5.00;;;;;41.27;13.11;101835.59;5029930;28;45787;-71
2022/08/08 09:44:18;;;;;;;;;4.00;4.00;;;;;42.30;12.46;101864.69;5035611;28;45601;-69
2022/08/08 09:46:47;;;;;;;;;5.33;3.00;;;;;42.94;12.29;101870.28;5022503;28;46099;-66
2022/08/08 09:49:16;;;;;;;;;8.67;7.00;;;;;43.37;11.78;101866.44;5014814;28;46484;-66
2022/08/08 09:51:42;;;;;;;;;4.00;2.00;;;;;43.47;11.24;101852.06;5034886;28;45630;-64
2022/08/08 09:54:08;;;;;;;;;5.33;5.33;;;;;43.88;11.25;101861.63;5018204;28;45713;-65
2022/08/08 09:56:37;;;;;;;;;6.00;6.00;;;;;43.78;11.73;101867.63;5035776;28;45575;-67
2022/08/08 09:59:04;;;;;;;;;7.67;7.67;;;;;43.17;11.48;101861.59;5026818;28;46565;-64
2022/08/08 10:01:31;;;;;;;;;5.00;4.67;;;;;42.66;11.90;101863.47;5023745;28;45371;-65
2022/08/08 10:03:59;;;;;;;;;3.33;3.00;;;;;42.38;12.13;101865.81;5028627;28;45547;-65
2022/08/08 10:06:24;;;;;;;;;4.00;4.00;;;;;40.68;13.04;101793.19;5025491;28;45435;-64
2022/08/08 10:08:51;;;;;;;;;5.33;4.00;;;;;40.22;13.79;101859.63;5035557;28;46749;-64
2022/08/08 10:11:18;;;;;;;;;6.00;4.67;;;;;38.83;15.00;101844.31;5017866;28;45539;-65
2022/08/08 10:13:53;;;;;;;;;6.00;3.00;;;;;37.87;15.93;101863.44;5033536;28;45642;-67
2022/08/08 10:16:20;;;;;;;;;4.33;4.33;;;;;36.21;17.59;101863.03;5014309;28;45607;-64
2022/08/08 10:18:45;;;;;;;;;4.67;4.00;;;;;35.58;17.80;101853.75;5033676;28;45836;-65
2022/08/08 10:21:15;;;;;;;;;4.00;4.00;;;;;34.92;18.61;101851.25;5039461;28;45596;-65
2022/08/08 10:23:45;;;;;;;;;4.00;3.67;;;;;34.07;19.18;101829.75;5038850;28;45325;-64
2022/08/08 10:26:17;;;;;;;;;2.67;2.67;;;;;33.68;20.26;101845.91;5038573;28;45297;-64
2022/08/08 10:29:00;;;;;;;;;4.00;4.00;;;;;32.89;21.17;101846.94;5024895;28;46220;-63
2022/08/08 10:34:17;;;;;;;;;7.33;7.33;;;;;31.12;22.83;101848.69;5038459;28;45524;-64
2022/08/08 10:36:43;;;;;;;;;5.00;5.00;;;;;30.45;22.70;101805.69;5038169;28;45581;-65
2022/08/08 10:39:15;;;;;;;;;6.00;6.00;;;;;30.13;23.67;101843.81;5038824;28;45759;-65
2022/08/08 10:41:43;;;;;;;;;5.00;5.00;;;;;29.27;23.86;101738.84;5024254;28;45642;-66
2022/08/08 10:44:11;;;;;;;;;5.00;5.00;;;;;29.52;24.73;101845.41;5033919;28;45469;-65
2022/08/08 10:46:37;;;;;;;;;5.00;3.67;;;;;29.21;25.53;101832.94;5032902;28;45252;-65
2022/08/08 10:49:02;;;;;;;;;5.00;5.00;;;;;28.84;25.49;101845.22;5025215;28;46545;-64
2022/08/08 10:51:29;;;;;;;;;5.00;5.00;;;;;28.80;26.02;101825.69;5033245;28;45447;-64
2022/08/08 10:53:55;;;;;;;;;6.00;6.00;;;;;28.71;26.36;101841.66;5031548;28;45431;-65
2022/08/08 10:56:22;;;;;;;;;3.67;2.33;;;;;28.39;25.95;101843.03;5038042;28;45506;-67
2022/08/08 10:59:03;;;;;;;;;6.00;6.00;;;;;28.09;26.75;101838.44;5020073;28;46551;-67
2022/08/08 11:01:30;;;;;;;;;5.00;5.00;;;;;27.72;27.35;101796.75;5029072;28;45627;-67
2022/08/08 11:04:00;;;;;;;;;5.33;5.33;;;;;27.80;27.25;101839.28;5038924;28;45362;-66
2022/08/08 11:06:33;;;;;;;;;9.00;7.00;;;;;27.82;27.13;101831.69;5039758;28;45520;-65
2022/08/08 11:09:04;;;;;;;;;5.00;5.00;;;;;27.75;27.68;101817.28;5039132;28;46575;-66
2022/08/08 11:11:40;;;;;;;;;7.00;7.00;;;;;27.57;27.00;101824.44;5039227;28;45335;-66
2022/08/08 11:14:07;;;;;;;;;4.67;4.67;;;;;27.46;27.01;101814.31;5008561;28;46113;-67
2022/08/08 11:16:41;;;;;;;;;6.00;6.00;;;;;27.66;26.93;101829.63;5038298;28;45546;-66
2022/08/08 11:19:06;;;;;;;;;5.00;5.00;;;;;27.61;26.55;101821.25;5039145;28;46688;-67
2022/08/08 11:21:40;;;;;;;;;5.67;5.67;;;;;27.55;27.26;101833.94;5038402;28;45546;-67
2022/08/08 11:24:10;;;;;;;;;6.00;6.00;;;;;27.03;27.06;101742.59;5039104;28;45477;-68
2022/08/08 11:26:42;;;;;;;;;5.67;4.33;;;;;27.48;26.54;101816.81;5020149;28;47154;-68
2022/08/08 11:29:08;;;;;;;;;7.00;7.00;;;;;27.41;26.31;101810.56;5034616;28;46654;-69
2022/08/08 11:31:47;;;;;;;;;4.00;4.00;;;;;27.22;26.17;101807.03;5020255;28;46076;-66
2022/08/08 11:34:14;;;;;;;;;4.00;4.00;;;;;27.20;26.43;101781.84;5037806;28;45552;-68
2022/08/08 11:36:40;;;;;;;;;4.33;4.33;;;;;27.52;26.37;101812.53;5039559;28;45499;-68
2022/08/08 11:39:06;;;;;;;;;4.00;4.00;;;;;27.46;26.05;101816.19;5038661;28;46337;-66
2022/08/08 11:41:34;;;;;;;;;4.00;4.00;;;;;27.02;25.74;101722.66;5037752;28;45348;-66
2022/08/08 11:44:00;;;;;;;;;5.33;5.33;;;;;27.50;25.75;101825.59;5036479;28;45448;-72
2022/08/08 11:46:27;;;;;;;;;2.67;2.67;;;;;27.51;25.78;101816.34;5039181;28;45381;-67
2022/08/08 11:48:53;;;;;;;;;6.67;3.33;;;;;27.52;25.08;101809.81;5040986;28;47016;-64
2022/08/08 11:51:22;;;;;;;;;5.00;5.00;;;;;27.52;25.29;101807.91;5044427;28;45522;-65
2022/08/08 11:53:48;;;;;;;;;4.00;4.00;;;;;27.48;25.52;101823.09;5038788;28;45263;-67
2022/08/08 11:56:21;;;;;;;;;4.00;4.00;;;;;27.45;25.39;101807.19;5036472;28;45463;-66
2022/08/08 11:58:49;;;;;;;;;4.00;3.67;;;;;27.41;25.47;101803.22;5045252;28;46136;-69
2022/08/08 12:01:14;;;;;;;;;2.00;2.00;;;;;27.35;24.96;101795.94;5026925;28;45514;-70
2022/08/08 12:03:49;;;;;;;;;4.67;4.33;;;;;27.27;25.12;101782.63;5037693;28;45242;-64